Time;durP1;ratioP1;P1;durP2;ratioP2;P2;SDS_P1;SDS_P2;PMS_P1;PMS_P2;Temp;Humidity;BMP_temperature;BMP_pressure;BME280_temperature;BME280_humidity;BME280_pressure;Samples;Min_cycle;Max_cycle;Signal;HPM_P1;HPM_P2
2023/03/08 00:02:29;;;;;;;50.75;17.42;;;;;;;1.70;69.93;99911.88;1755404;80;21248;-58
2023/03/08 00:05:40;;;;;;;53.15;16.80;;;;;;;1.66;69.95;99906.41;1730699;81;21342;-57
2023/03/08 00:09:03;;;;;;;47.78;18.70;;;;;;;1.62;69.90;99901.41;1684698;84;21803;-57
2023/03/08 00:13:03;;;;;;;73.62;19.75;;;;;;;1.54;69.67;99903.39;1690287;83;21287;-58
2023/03/08 00:16:34;;;;;;;69.75;22.80;;;;;;;1.45;69.47;99895.61;1702540;83;21255;-57
2023/03/08 00:20:05;;;;;;;47.25;23.15;;;;;;;1.48;69.67;99888.60;1859970;75;22396;-58
2023/03/08 00:23:29;;;;;;;81.97;22.32;;;;;;;1.41;69.73;99886.05;1804916;76;21310;-58
2023/03/08 00:26:51;;;;;;;90.77;18.92;;;;;;;1.39;69.79;99889.39;1792171;77;21200;-61
2023/03/08 00:30:24;;;;;;;67.08;16.50;;;;;;;1.41;69.92;99900.05;1809325;76;21487;-61
2023/03/08 00:33:46;;;;;;;61.92;16.55;;;;;;;1.38;69.77;99902.97;1820020;76;21804;-57
2023/03/08 00:36:59;;;;;;;84.13;17.17;;;;;;;1.35;69.66;99900.54;1810649;75;21160;-57
2023/03/08 00:40:20;;;;;;;92.15;16.20;;;;;;;1.32;69.58;99890.02;1823659;75;21338;-59
2023/03/08 00:43:58;;;;;;;57.38;16.80;;;;;;;1.32;69.61;99892.71;1825949;76;21187;-60
2023/03/08 00:47:23;;;;;;;112.20;17.70;;;;;;;1.36;69.81;99894.19;1795772;76;21346;-58
2023/03/08 00:50:54;;;;;;;100.92;17.55;;;;;;;1.27;69.69;99888.20;1795429;76;21280;-60
2023/03/08 00:54:24;;;;;;;72.78;16.80;;;;;;;1.30;69.79;99885.27;1833506;77;21605;-59
2023/03/08 00:57:49;;;;;;;98.30;17.90;;;;;;;1.36;70.01;99881.53;1810097;77;21180;-59
2023/03/08 01:01:08;;;;;;;76.22;17.92;;;;;;;1.36;69.91;99882.88;1795441;77;21272;-57
2023/03/08 01:04:27;;;;;;;57.08;15.75;;;;;;;1.33;69.88;99879.10;1752658;79;21417;-60
2023/03/08 01:07:51;;;;;;;70.05;15.58;;;;;;;1.28;69.76;99878.66;1829038;77;21720;-60
2023/03/08 01:11:16;;;;;;;73.60;18.05;;;;;;;1.25;69.83;99880.24;1822081;77;21232;-59
2023/03/08 01:14:28;;;;;;;90.40;17.70;;;;;;;1.29;70.02;99874.97;1826569;77;21358;-60
2023/03/08 01:17:55;;;;;;;55.48;17.07;;;;;;;1.34;70.09;99865.14;1815489;77;21396;-57
2023/03/08 01:21:18;;;;;;;69.82;16.90;;;;;;;1.36;70.29;99855.92;1759132;79;21228;-60
2023/03/08 01:24:43;;;;;;;82.10;20.68;;;;;;;1.47;70.60;99877.95;1813975;76;21196;-58
2023/03/08 01:28:03;;;;;;;75.92;21.95;;;;;;;1.53;70.64;99874.23;1787090;77;21217;-58
2023/03/08 01:31:29;;;;;;;84.75;23.25;;;;;;;1.58;70.60;99875.67;1809949;76;21220;-58
2023/03/08 01:34:47;;;;;;;77.15;21.48;;;;;;;1.54;70.33;99875.06;1794199;77;21171;-58
2023/03/08 01:38:16;;;;;;;89.67;22.65;;;;;;;1.57;70.52;99884.24;1762020;77;21389;-60
2023/03/08 01:41:40;;;;;;;76.70;20.10;;;;;;;1.64;70.63;99880.53;1828356;76;21199;-61
2023/03/08 01:45:09;;;;;;;84.77;20.10;;;;;;;1.65;70.40;99875.52;1781197;75;21124;-58
2023/03/08 01:48:33;;;;;;;90.62;18.67;;;;;;;1.59;70.28;99857.17;1822005;77;21220;-60
2023/03/08 01:52:11;;;;;;;73.90;16.15;;;;;;;1.66;70.60;99865.08;1814952;77;21181;-58
2023/03/08 01:55:40;;;;;;;100.65;20.70;;;;;;;1.68;70.69;99862.63;1818799;76;21444;-57
2023/03/08 01:59:06;;;;;;;63.15;17.48;;;;;;;1.62;70.50;99869.04;1785702;77;21293;-60
2023/03/08 02:02:33;;;;;;;95.22;23.20;;;;;;;1.52;70.43;99854.14;1791982;78;21197;-57
2023/03/08 02:05:52;;;;;;;85.55;23.90;;;;;;;1.48;70.49;99852.20;1789977;78;21261;-57
2023/03/08 02:09:02;;;;;;;96.97;23.83;;;;;;;1.53;70.74;99848.62;1762402;79;21756;-60
2023/03/08 02:12:15;;;;;;;126.80;21.15;;;;;;;1.61;70.89;99855.17;1748956;79;21185;-59
2023/03/08 02:15:34;;;;;;;72.50;19.95;;;;;;;1.67;71.02;99858.20;1759073;76;21259;-59
2023/03/08 02:19:08;;;;;;;115.55;17.92;;;;;;;1.75;71.16;99860.22;1758053;80;21250;-57
2023/03/08 02:22:28;;;;;;;97.85;16.67;;;;;;;1.81;71.23;99857.02;1814933;76;21246;-60
2023/03/08 02:25:46;;;;;;;80.83;17.62;;;;;;;1.84;71.12;99850.83;1792998;78;21780;-60
2023/03/08 02:29:07;;;;;;;76.80;16.32;;;;;;;1.83;71.05;99845.58;1761215;79;21212;-60
2023/03/08 02:32:24;;;;;;;85.72;16.60;;;;;;;1.87;71.12;99848.38;1808072;76;21351;-60
2023/03/08 02:35:43;;;;;;;66.30;15.80;;;;;;;1.92;71.12;99862.33;1824803;76;21427;-60
2023/03/08 02:39:01;;;;;;;66.00;15.93;;;;;;;1.93;71.11;99857.28;1818702;76;21192;-58
2023/03/08 02:42:20;;;;;;;69.17;15.30;;;;;;;1.97;71.16;99860.92;1818806;76;21251;-60
2023/03/08 02:45:49;;;;;;;71.53;16.20;;;;;;;1.92;70.96;99861.81;1802536;75;21234;-60
2023/03/08 02:49:14;;;;;;;86.10;16.45;;;;;;;1.94;70.97;99863.03;1805662;74;21212;-57
2023/03/08 02:52:39;;;;;;;94.00;16.30;;;;;;;1.97;71.07;99871.72;1821129;76;21191;-57
2023/03/08 02:55:51;;;;;;;82.30;16.37;;;;;;;1.99;71.19;99863.48;1829083;77;21252;-57
2023/03/08 02:59:09;;;;;;;75.37;17.27;;;;;;;2.04;71.32;99849.96;1810183;77;21234;-59
2023/03/08 03:02:27;;;;;;;57.35;16.10;;;;;;;2.07;71.39;99852.88;1827250;77;21200;-60
2023/03/08 03:05:54;;;;;;;72.58;16.37;;;;;;;2.09;71.44;99863.91;1826199;77;21540;-60
2023/03/08 03:09:26;;;;;;;50.92;14.53;;;;;;;2.10;71.37;99868.31;1813185;76;21222;-57
2023/03/08 03:12:56;;;;;;;46.37;16.27;;;;;;;2.09;71.33;99875.20;1789707;77;21277;-57
2023/03/08 03:16:18;;;;;;;40.52;15.98;;;;;;;2.06;71.23;99863.33;1818072;76;22837;-59
2023/03/08 03:19:41;;;;;;;59.40;15.83;;;;;;;1.98;71.05;99865.84;1790267;76;21358;-60
2023/03/08 03:23:07;;;;;;;47.53;15.80;;;;;;;1.95;71.21;99848.56;1820041;77;21289;-57
2023/03/08 03:26:26;;;;;;;26.82;14.18;;;;;;;1.99;71.33;99845.94;1821505;76;21195;-57
2023/03/08 03:29:51;;;;;;;37.55;15.40;;;;;;;2.03;71.40;99847.41;1820723;76;21419;-57
2023/03/08 03:33:16;;;;;;;42.78;15.88;;;;;;;2.05;71.44;99850.80;1797872;77;21320;-59
2023/03/08 03:36:04;;;;;;;33.88;15.08;;;;;;;2.09;71.45;99850.91;1746948;79;21999;-60
2023/03/08 03:39:22;;;;;;;39.83;16.35;;;;;;;2.11;71.47;99836.78;1758049;78;21319;-59
2023/03/08 03:42:42;;;;;;;30.10;16.20;;;;;;;2.16;71.51;99842.60;1769864;80;21208;-60
2023/03/08 03:46:22;;;;;;;34.35;15.85;;;;;;;2.19;71.58;99832.91;1742968;77;21306;-59
2023/03/08 03:49:48;;;;;;;27.17;15.08;;;;;;;2.23;71.65;99830.28;1772650;77;21243;-60
2023/03/08 03:53:03;;;;;;;29.37;14.83;;;;;;;2.27;71.72;99831.22;1803450;77;21841;-60
2023/03/08 03:56:35;;;;;;;31.10;16.12;;;;;;;2.27;71.65;99823.60;1827059;77;21231;-59
2023/03/08 04:00:07;;;;;;;33.50;15.35;;;;;;;2.29;71.68;99813.53;1815184;76;21251;-62
2023/03/08 04:03:30;;;;;;;30.40;15.75;;;;;;;2.30;71.68;99803.94;1808053;76;21654;-62
2023/03/08 04:07:03;;;;;;;28.12;15.13;;;;;;;2.33;71.71;99797.42;1802401;77;21227;-60
2023/03/08 04:10:36;;;;;;;32.53;16.32;;;;;;;2.35;71.72;99798.11;1815448;76;21913;-62
2023/03/08 04:14:00;;;;;;;23.65;16.82;;;;;;;2.34;71.69;99812.63;1794955;77;21369;-62
2023/03/08 04:17:19;;;;;;;24.87;15.65;;;;;;;2.29;71.50;99825.19;1815647;75;21203;-60
2023/03/08 04:21:03;;;;;;;26.68;16.57;;;;;;;2.15;71.29;99834.16;1811841;77;22047;-60
2023/03/08 04:24:45;;;;;;;23.98;15.88;;;;;;;2.10;71.31;99831.01;1814530;77;21192;-62
2023/03/08 04:28:27;;;;;;;23.30;15.75;;;;;;;2.09;71.50;99822.08;1777617;76;21259;-61
2023/03/08 04:32:13;;;;;;;23.15;14.95;;;;;;;2.15;71.76;99832.80;1794874;78;21871;-59
2023/03/08 04:35:33;;;;;;;20.88;14.07;;;;;;;2.34;72.02;99820.72;1860137;76;22255;-60
2023/03/08 04:38:52;;;;;;;19.82;14.00;;;;;;;2.36;72.13;99815.53;1805506;79;21962;-61
2023/03/08 04:42:28;;;;;;;20.62;14.05;;;;;;;2.46;72.22;99823.17;1805873;79;21374;-58
2023/03/08 04:45:42;;;;;;;21.27;15.13;;;;;;;2.58;72.34;99820.73;1805461;79;21386;-60
2023/03/08 04:49:06;;;;;;;22.90;15.28;;;;;;;2.67;72.37;99813.61;1804748;79;21184;-59
2023/03/08 04:52:55;;;;;;;23.73;15.72;;;;;;;2.74;72.34;99816.95;1802093;79;21192;-61
2023/03/08 04:56:23;;;;;;;28.05;18.10;;;;;;;2.78;72.20;99810.78;1804660;79;21229;-61
2023/03/08 04:59:50;;;;;;;26.00;17.50;;;;;;;2.83;72.21;99807.16;1767295;79;21200;-61
2023/03/08 05:13:50;;;;;;;32.95;19.85;;;;;;;2.99;72.08;99785.84;1793078;79;22787;-61
2023/03/08 05:17:04;;;;;;;32.70;19.98;;;;;;;2.97;72.19;99788.69;1739553;81;21255;-61
2023/03/08 05:20:55;;;;;;;35.05;21.00;;;;;;;3.04;72.17;99788.97;1686136;84;21260;-59
2023/03/08 05:24:22;;;;;;;32.70;21.35;;;;;;;3.13;72.25;99796.22;1683051;84;21224;-61
2023/03/08 05:27:56;;;;;;;35.73;21.68;;;;;;;3.19;72.16;99796.98;1693240;84;21229;-60
2023/03/08 05:31:41;;;;;;;43.25;21.82;;;;;;;3.14;71.93;99794.38;1709563;83;21240;-59
2023/03/08 05:35:23;;;;;;;41.10;23.32;;;;;;;3.16;71.97;99787.81;1694120;83;21296;-62
2023/03/08 05:39:29;;;;;;;54.27;24.25;;;;;;;3.19;71.90;99787.52;1720587;81;21204;-61
2023/03/08 05:42:50;;;;;;;62.85;21.48;;;;;;;3.27;72.08;99797.13;1659755;85;22097;-61
2023/03/08 05:46:29;;;;;;;53.35;18.40;;;;;;;3.37;72.13;99803.87;1669522;85;21302;-60
2023/03/08 05:53:34;;;;;;;47.10;16.87;;;;;;;3.18;71.78;99799.34;1620442;86;21391;-61
2023/03/08 05:57:02;;;;;;;33.75;15.32;;;;;;;3.16;71.90;99808.09;1661259;83;21463;-59
2023/03/08 06:16:03;;;;;;;53.55;17.05;;;;;;;3.27;72.22;99785.47;1663952;79;21257;-54
2023/03/08 06:19:37;;;;;;;43.83;14.53;;;;;;;3.32;72.04;99783.16;1845966;76;22647;-55
2023/03/08 06:23:28;;;;;;;41.35;16.05;;;;;;;3.27;72.09;99780.89;1797258;79;22125;-60
2023/03/08 06:27:05;;;;;;;41.73;16.30;;;;;;;3.35;72.28;99778.33;1758897;80;21376;-58
2023/03/08 06:30:39;;;;;;;44.15;15.58;;;;;;;3.40;72.18;99767.92;1760567;76;21240;-55
2023/03/08 06:33:50;;;;;;;37.13;16.20;;;;;;;3.44;72.26;99773.38;1704558;83;21458;-57
2023/03/08 06:36:50;;;;;;;31.55;16.05;;;;;;;3.44;72.24;99759.02;1672332;85;21356;-58
2023/03/08 06:40:43;;;;;;;30.55;15.08;;;;;;;3.47;72.32;99759.59;1698400;77;21239;-59
2023/03/08 06:44:02;;;;;;;32.20;14.38;;;;;;;3.54;72.29;99764.75;1736883;81;21232;-59
2023/03/08 06:47:30;;;;;;;39.13;15.03;;;;;;;3.62;72.38;99764.87;1698637;83;21534;-59
2023/03/08 06:51:10;;;;;;;44.42;16.37;;;;;;;3.68;72.40;99766.98;1717923;82;21290;-55
2023/03/08 06:54:09;;;;;;;39.35;15.08;;;;;;;3.79;72.49;99769.52;1740235;81;21898;-58
2023/03/08 06:57:45;;;;;;;43.50;15.80;;;;;;;3.96;72.46;99788.20;1836924;76;22361;-56
2023/03/08 07:01:08;;;;;;;41.42;16.97;;;;;;;3.86;72.24;99792.30;1759970;81;21213;-60
2023/03/08 07:07:55;;;;;;;41.73;17.82;;;;;;;3.60;72.02;99787.69;1845567;77;21678;-54
2023/03/08 07:22:00;;;;;;;55.40;18.15;;;;;;;3.84;72.67;99769.92;1757338;76;22480;-54
2023/03/08 07:29:59;;;;;;;46.25;18.52;;;;;;;3.98;72.94;99753.19;1831077;76;22265;-56
2023/03/08 07:37:28;;;;;;;46.80;19.57;;;;;;;4.09;72.94;99748.93;1837546;76;22243;-59
2023/03/08 07:45:17;;;;;;;77.27;21.90;;;;;;;4.21;72.99;99751.80;1751814;80;21519;-59
2023/03/08 07:48:41;;;;;;;62.30;22.93;;;;;;;4.31;72.82;99754.45;1759120;81;21830;-56
2023/03/08 07:56:28;;;;;;;62.40;24.12;;;;;;;4.47;72.89;99753.30;1836892;74;22352;-59
2023/03/08 08:00:23;;;;;;;68.07;24.55;;;;;;;4.53;72.81;99747.25;1855470;76;22893;-56
2023/03/08 08:18:24;;;;;;;;;;;;;;;4.77;73.26;99701.91;1725976;76;21631;-55
2023/03/08 08:22:52;;;;;;;68.55;26.17;;;;;;;4.98;73.39;99694.31;1691725;82;20239;-58
2023/03/08 08:30:15;;;;;;;76.00;27.15;;;;;;;5.29;73.48;99696.41;1595822;85;21311;-59
2023/03/08 08:38:13;;;;;;;68.17;27.07;;;;;;;5.31;72.97;99693.02;1655459;85;21196;-56
2023/03/08 08:41:31;;;;;;;76.57;28.27;;;;;;;5.29;72.85;99691.48;1688575;82;21236;-57
2023/03/08 08:44:42;;;;;;;68.35;27.98;;;;;;;5.26;72.88;99693.16;1695104;81;21179;-54
2023/03/08 08:48:13;;;;;;;84.37;30.55;;;;;;;5.26;72.96;99695.87;1689477;80;21220;-57
2023/03/08 08:51:27;;;;;;;70.50;31.17;;;;;;;5.26;72.98;99691.31;1642830;83;21233;-57
2023/03/08 09:01:58;;;;;;;66.30;28.42;;;;;;;5.33;73.10;99665.22;1767590;77;21733;-58
2023/03/08 09:10:02;;;;;;;60.73;28.27;;;;;;;5.41;73.16;99665.77;1753682;76;21198;-57
2023/03/08 09:16:16;;;;;;;61.05;31.27;;;;;;;5.53;73.37;99667.21;1742477;80;21720;-57
2023/03/08 09:19:51;;;;;;;63.15;31.52;;;;;;;5.65;73.50;99668.63;1769736;79;21911;-56
2023/03/08 09:23:14;;;;;;;66.25;32.67;;;;;;;5.97;73.47;99658.80;1856008;76;22467;-57
2023/03/08 09:26:42;;;;;;;56.42;30.52;;;;;;;6.07;73.45;99653.23;1845114;76;22361;-57
2023/03/08 09:30:07;;;;;;;62.55;31.45;;;;;;;6.09;73.39;99652.53;1723128;83;21462;-57
2023/03/08 09:33:36;;;;;;;63.85;32.50;;;;;;;6.11;73.29;99647.80;1780567;79;21710;-57
2023/03/08 09:37:06;;;;;;;61.28;32.08;;;;;;;6.17;73.45;99639.50;1796482;79;22061;-59
2023/03/08 09:40:22;;;;;;;67.42;34.00;;;;;;;6.19;73.43;99639.66;1803885;79;21256;-57
2023/03/08 09:44:06;;;;;;;65.52;33.88;;;;;;;6.24;73.44;99645.95;1804298;79;21181;-57
2023/03/08 09:47:52;;;;;;;60.03;30.48;;;;;;;6.31;73.57;99636.13;1867206;74;22261;-57
2023/03/08 09:51:46;;;;;;;61.90;32.05;;;;;;;6.32;73.75;99640.04;1815804;77;21227;-57
2023/03/08 10:03:52;;;;;;;66.55;31.57;;;;;;;6.82;74.10;99621.72;1690997;82;21248;-57
2023/03/08 10:11:44;;;;;;;55.38;30.02;;;;;;;7.23;74.25;99620.64;1729866;82;21266;-60
2023/03/08 10:15:23;;;;;;;58.75;30.02;;;;;;;7.42;74.53;99622.98;1718806;82;21220;-58
2023/03/08 10:19:06;;;;;;;50.28;26.55;;;;;;;7.64;74.68;99624.95;1723284;82;21221;-58
2023/03/08 10:23:00;;;;;;;48.23;27.02;;;;;;;7.79;74.57;99621.48;1722608;82;21606;-61
2023/03/08 10:26:26;;;;;;;49.63;28.65;;;;;;;7.94;74.53;99621.95;1724248;82;21228;-60
2023/03/08 10:30:06;;;;;;;47.00;27.55;;;;;;;8.01;74.42;99614.74;1729244;82;21332;-59
2023/03/08 10:33:33;;;;;;;49.33;28.30;;;;;;;8.14;74.49;99615.02;1648167;84;21221;-61
2023/03/08 10:37:25;;;;;;;76.70;40.73;;;;;;;8.34;74.56;99607.28;1701127;84;21209;-61
2023/03/08 10:40:55;;;;;;;48.00;29.05;;;;;;;8.59;74.62;99605.53;1701791;83;21244;-61
2023/03/08 10:44:14;;;;;;;46.40;27.93;;;;;;;8.92;74.76;99605.63;1725852;82;21213;-58
2023/03/08 10:47:56;;;;;;;43.98;26.60;;;;;;;9.26;74.67;99595.54;1729884;82;21237;-59
2023/03/08 10:51:32;;;;;;;46.42;28.67;;;;;;;9.44;74.44;99591.08;1731225;82;21666;-61
2023/03/08 10:54:55;;;;;;;41.80;25.85;;;;;;;9.58;74.42;99585.62;1709000;82;21300;-60
2023/03/08 10:59:02;;;;;;;44.42;26.97;;;;;;;9.70;74.35;99566.37;1692689;84;21217;-60
2023/03/08 11:03:04;;;;;;;37.08;23.55;;;;;;;9.76;74.09;99572.43;1736453;80;21176;-58
2023/03/08 11:07:00;;;;;;;38.73;25.75;;;;;;;9.79;74.07;99572.05;1771373;80;21236;-58
2023/03/08 11:10:38;;;;;;;37.98;24.87;;;;;;;9.93;74.05;99560.23;1784046;79;21231;-58
2023/03/08 11:14:22;;;;;;;47.30;27.85;;;;;;;10.06;74.03;99563.64;1784635;80;21325;-58
2023/03/08 11:18:18;;;;;;;69.95;46.13;;;;;;;10.13;73.94;99557.78;1755340;80;21792;-60
2023/03/08 11:22:23;;;;;;;37.80;24.40;;;;;;;10.23;74.00;99559.66;1734289;82;21530;-58
2023/03/08 11:26:37;;;;;;;38.13;24.63;;;;;;;10.44;74.11;99547.38;1752719;81;21812;-60
2023/03/08 11:45:36;;;;;;;39.18;25.02;;;;;;;10.93;74.15;99544.65;1760280;78;22905;-58
2023/03/08 11:49:33;;;;;;;38.08;23.25;;;;;;;10.94;74.16;99540.34;1696140;81;21715;-58
2023/03/08 11:53:28;;;;;;;36.17;22.87;;;;;;;11.07;74.08;99538.25;1750867;79;21225;-60
2023/03/08 11:57:06;;;;;;;32.50;21.27;;;;;;;11.13;73.94;99536.91;1741814;81;21213;-58
2023/03/08 12:00:52;;;;;;;33.20;22.02;;;;;;;11.12;73.87;99530.25;1757437;81;21383;-59
2023/03/08 12:08:06;;;;;;;34.58;22.52;;;;;;;11.19;73.94;99532.53;1724132;82;21217;-57
2023/03/08 12:11:55;;;;;;;32.10;20.02;;;;;;;11.27;74.07;99527.76;1703232;82;21876;-60
2023/03/08 12:16:07;;;;;;;31.33;20.57;;;;;;;11.34;74.01;99525.88;1685622;84;21796;-60
2023/03/08 12:19:17;;;;;;;29.12;19.75;;;;;;;11.35;73.84;99532.22;1685643;84;21169;-58
2023/03/08 12:23:01;;;;;;;30.45;20.25;;;;;;;11.34;73.87;99530.50;1669118;84;21237;-58
2023/03/08 12:26:40;;;;;;;30.77;20.12;;;;;;;11.40;73.86;99524.25;1827134;76;22242;-58
2023/03/08 12:30:01;;;;;;;29.60;18.75;;;;;;;11.30;73.69;99529.23;1774012;79;21236;-59
2023/03/08 12:33:19;;;;;;;30.90;18.87;;;;;;;11.27;73.85;99531.01;1773648;80;21184;-59
2023/03/08 12:36:53;;;;;;;32.55;21.05;;;;;;;11.25;73.90;99525.73;1773114;79;21347;-58
2023/03/08 12:40:48;;;;;;;34.53;21.12;;;;;;;11.30;74.02;99530.09;1771885;79;21757;-57
2023/03/08 12:44:39;;;;;;;31.37;19.70;;;;;;;11.34;74.04;99525.03;1773540;80;21122;-58
2023/03/08 12:48:34;;;;;;;26.12;17.90;;;;;;;11.40;74.04;99529.73;1773598;81;21437;-60
2023/03/08 12:52:01;;;;;;;28.75;19.05;;;;;;;11.42;73.93;99534.45;1771508;79;21201;-61
2023/03/08 12:55:36;;;;;;;28.65;19.12;;;;;;;11.47;74.05;99537.45;1734013;81;21208;-57
2023/03/08 12:59:08;;;;;;;24.23;16.62;;;;;;;11.50;73.98;99531.55;1769886;78;21240;-60
2023/03/08 13:02:42;;;;;;;23.80;15.58;;;;;;;11.48;73.91;99529.56;1772355;80;21399;-59
2023/03/08 13:06:01;;;;;;;26.10;16.42;;;;;;;11.41;73.91;99517.70;1770569;80;21217;-59
2023/03/08 13:09:32;;;;;;;24.20;18.15;;;;;;;11.37;73.97;99515.89;1770426;80;21587;-60
2023/03/08 13:13:12;;;;;;;26.93;17.92;;;;;;;11.38;74.02;99512.63;1771137;81;21188;-59
2023/03/08 13:16:53;;;;;;;23.77;16.67;;;;;;;11.33;73.83;99511.02;1769891;79;21257;-58
2023/03/08 13:20:27;;;;;;;26.27;17.27;;;;;;;11.24;73.76;99508.13;1770877;79;21275;-59
2023/03/08 13:24:05;;;;;;;25.00;16.42;;;;;;;11.15;73.82;99509.31;1729204;80;21288;-59
2023/03/08 13:28:02;;;;;;;22.37;15.43;;;;;;;11.11;73.88;99506.66;1722746;83;21208;-59
2023/03/08 13:31:29;;;;;;;19.95;13.45;;;;;;;11.08;74.00;99507.07;1723850;81;21276;-59
2023/03/08 13:34:46;;;;;;;16.37;12.33;;;;;;;11.05;74.03;99495.97;1684287;83;21248;-57
2023/03/08 13:38:13;;;;;;;18.10;13.80;;;;;;;11.03;74.01;99492.61;1712213;83;21233;-58
2023/03/08 13:41:28;;;;;;;17.92;13.35;;;;;;;10.99;74.02;99494.59;1712528;83;21281;-57
2023/03/08 13:44:58;;;;;;;17.82;12.40;;;;;;;10.97;74.08;99491.20;1702974;83;21307;-59
2023/03/08 13:48:24;;;;;;;50.45;25.85;;;;;;;10.96;74.21;99491.70;1699019;84;21229;-57
2023/03/08 13:52:04;;;;;;;18.30;12.68;;;;;;;10.95;74.20;99491.91;1711980;82;21250;-59
2023/03/08 13:56:03;;;;;;;17.62;12.20;;;;;;;10.93;74.24;99484.41;1718827;81;21256;-60
2023/03/08 13:59:34;;;;;;;17.32;12.73;;;;;;;10.89;74.23;99480.39;1705612;81;21208;-57
2023/03/08 14:03:14;;;;;;;18.57;13.43;;;;;;;10.88;74.23;99480.08;1696186;84;21261;-56
2023/03/08 14:10:45;;;;;;;18.02;11.08;;;;;;;10.78;74.08;99459.05;1717368;81;21235;-57
2023/03/08 14:24:57;;;;;;;17.90;12.47;;;;;;;10.37;74.01;99449.33;1851186;77;23075;-59
2023/03/08 14:28:50;;;;;;;17.67;12.68;;;;;;;10.28;74.11;99455.99;1733572;82;21649;-57
2023/03/08 14:32:34;;;;;;;22.93;12.60;;;;;;;10.26;74.22;99459.44;1708657;83;21275;-57
2023/03/08 14:36:13;;;;;;;16.75;11.70;;;;;;;10.21;74.22;99454.55;1711715;83;21221;-59
2023/03/08 14:39:44;;;;;;;21.87;12.25;;;;;;;10.19;74.29;99453.94;1708218;82;21825;-57
2023/03/08 14:43:08;;;;;;;18.12;12.65;;;;;;;10.16;74.34;99455.66;1724441;82;21361;-60
2023/03/08 14:46:35;;;;;;;16.12;11.50;;;;;;;10.19;74.32;99447.61;1806499;76;22290;-57
2023/03/08 14:50:14;;;;;;;20.23;11.80;;;;;;;10.09;74.32;99445.20;1747975;78;21285;-56
2023/03/08 14:53:50;;;;;;;16.85;13.28;;;;;;;10.03;74.21;99436.89;1796980;79;21224;-57
2023/03/08 14:57:10;;;;;;;16.55;11.80;;;;;;;9.87;74.05;99435.27;1765026;79;21304;-56
2023/03/08 15:00:33;;;;;;;16.93;12.95;;;;;;;9.78;74.13;99437.81;1756242;79;21249;-59
2023/03/08 15:04:18;;;;;;;17.10;13.48;;;;;;;9.70;74.29;99437.93;1761248;79;21323;-57
2023/03/08 15:07:48;;;;;;;22.45;15.48;;;;;;;9.66;74.44;99439.34;1775615;79;21212;-58
2023/03/08 15:11:15;;;;;;;21.07;15.30;;;;;;;9.66;74.51;99437.97;1736891;78;21234;-57
2023/03/08 15:14:29;;;;;;;20.15;14.53;;;;;;;9.68;74.57;99433.67;1771126;79;21727;-59
2023/03/08 15:17:45;;;;;;;18.80;14.00;;;;;;;9.67;74.49;99432.83;1732358;80;21275;-57
2023/03/08 15:21:06;;;;;;;16.95;12.75;;;;;;;9.66;74.45;99434.38;1733627;76;21224;-57
2023/03/08 15:24:23;;;;;;;16.32;11.80;;;;;;;9.61;74.50;99429.50;1706006;79;21568;-60
2023/03/08 15:27:40;;;;;;;17.35;11.38;;;;;;;9.57;74.52;99435.04;1765981;79;21247;-57
2023/03/08 15:31:00;;;;;;;18.23;11.63;;;;;;;9.53;74.53;99434.25;1725189;78;21781;-57
2023/03/08 15:34:22;;;;;;;15.53;11.00;;;;;;;9.47;74.55;99430.39;1716690;79;21240;-59
2023/03/08 15:37:36;;;;;;;14.65;10.63;;;;;;;9.41;74.60;99421.61;1733314;80;21267;-59
2023/03/08 15:40:57;;;;;;;15.95;10.55;;;;;;;9.35;74.59;99426.47;1701177;82;21261;-61
2023/03/08 15:44:28;;;;;;;13.40;10.70;;;;;;;9.29;74.61;99425.02;1691243;79;21322;-60
2023/03/08 15:47:44;;;;;;;16.40;11.22;;;;;;;9.22;74.67;99424.94;1730590;78;21243;-60
2023/03/08 15:51:05;;;;;;;14.70;11.05;;;;;;;9.15;74.72;99425.90;1729386;79;21272;-59
2023/03/08 15:54:18;;;;;;;15.60;11.27;;;;;;;9.05;74.77;99429.74;1782291;78;21213;-60
2023/03/08 15:57:31;;;;;;;20.92;11.38;;;;;;;8.96;74.74;99436.85;1755407;76;21311;-60
2023/03/08 16:01:08;;;;;;;18.20;13.20;;;;;;;8.89;74.74;99434.56;1910403;74;22593;-58
2023/03/08 16:04:18;;;;;;;18.50;12.73;;;;;;;8.76;74.78;99433.86;1860437;76;21295;-57
2023/03/08 16:07:46;;;;;;;25.00;15.72;;;;;;;8.68;74.82;99440.77;1876422;76;21196;-58
2023/03/08 16:11:21;;;;;;;41.23;20.37;;;;;;;8.60;74.85;99443.58;1858895;76;21808;-57
2023/03/08 16:14:44;;;;;;;56.70;32.38;;;;;;;8.52;74.86;99456.44;1817903;77;21208;-57
2023/03/08 16:18:16;;;;;;;43.78;27.98;;;;;;;8.40;74.88;99456.06;1777368;79;21537;-57
2023/03/08 16:21:48;;;;;;;42.13;26.55;;;;;;;8.32;74.91;99458.00;1771030;80;21210;-60
2023/03/08 16:25:28;;;;;;;37.98;22.67;;;;;;;8.22;74.91;99466.91;1757999;81;21744;-57
2023/03/08 16:28:43;;;;;;;30.15;18.02;;;;;;;8.13;74.93;99468.87;1771083;81;21391;-60
2023/03/08 16:32:11;;;;;;;27.80;17.70;;;;;;;8.07;74.95;99467.38;1771523;79;21196;-56
2023/03/08 16:35:37;;;;;;;23.62;16.17;;;;;;;8.00;74.93;99469.98;1847758;76;21281;-60
2023/03/08 16:39:02;;;;;;;22.37;15.75;;;;;;;7.90;74.84;99469.37;1828545;77;21165;-57
2023/03/08 16:42:26;;;;;;;22.65;14.38;;;;;;;7.80;74.79;99470.11;1841979;77;21173;-56
2023/03/08 16:46:07;;;;;;;18.32;13.62;;;;;;;7.73;74.77;99481.41;1835441;78;21339;-57
2023/03/08 16:49:52;;;;;;;21.87;15.08;;;;;;;7.66;74.76;99478.23;1822853;78;21192;-56
2023/03/08 16:53:09;;;;;;;20.97;14.75;;;;;;;7.59;74.80;99488.98;1839002;78;21185;-57
2023/03/08 16:56:39;;;;;;;19.17;14.58;;;;;;;7.53;74.82;99490.53;1843055;78;21602;-58
2023/03/08 17:00:11;;;;;;;21.55;14.63;;;;;;;7.50;74.87;99486.81;1838639;77;21365;-58
2023/03/08 17:03:27;;;;;;;19.37;13.65;;;;;;;7.45;74.82;99479.69;1805190;77;21210;-58
2023/03/08 17:06:57;;;;;;;17.65;13.55;;;;;;;7.43;74.80;99474.09;1821254;78;21357;-61
2023/03/08 17:10:18;;;;;;;19.50;12.73;;;;;;;7.40;74.83;99471.73;1827965;77;21859;-57
2023/03/08 17:13:43;;;;;;;18.50;13.20;;;;;;;7.38;74.84;99476.00;1838105;77;21181;-58
2023/03/08 17:17:05;;;;;;;;;;;;;;;7.34;74.92;99469.19;1841604;77;21228;-56
2023/03/08 17:20:46;;;;;;;18.77;12.68;;;;;;;7.35;74.97;99472.77;1828485;77;20231;-58
2023/03/08 17:24:06;;;;;;;20.32;13.13;;;;;;;7.32;75.06;99466.33;1824096;78;21252;-57
2023/03/08 17:27:35;;;;;;;30.15;19.80;;;;;;;7.32;75.08;99468.55;1819215;76;21283;-59
2023/03/08 17:31:09;;;;;;;33.25;22.02;;;;;;;7.32;75.10;99476.71;1789755;78;21216;-59
2023/03/08 17:34:31;;;;;;;19.25;12.85;;;;;;;7.31;75.12;99477.72;1813235;78;21229;-56
2023/03/08 17:38:03;;;;;;;18.23;12.98;;;;;;;7.36;75.09;99476.67;1884283;76;22215;-58
2023/03/08 17:41:28;;;;;;;22.27;16.52;;;;;;;7.29;75.10;99481.66;1842109;77;21323;-59
2023/03/08 17:45:06;;;;;;;20.75;15.53;;;;;;;7.28;75.09;99483.52;1843766;78;21347;-57
2023/03/08 17:48:25;;;;;;;21.85;14.75;;;;;;;7.30;75.07;99493.72;1828577;77;21358;-60
2023/03/08 17:51:48;;;;;;;19.60;15.00;;;;;;;7.33;75.10;99485.20;1843484;77;21836;-59
2023/03/08 17:55:06;;;;;;;22.07;15.53;;;;;;;7.39;75.10;99485.84;1824716;77;21252;-60
2023/03/08 17:58:34;;;;;;;18.92;12.82;;;;;;;7.47;75.09;99489.03;1842342;77;21714;-60
2023/03/08 18:01:56;;;;;;;21.57;12.65;;;;;;;7.56;75.11;99488.81;1847251;76;21204;-57
2023/03/08 18:05:14;;;;;;;18.23;12.43;;;;;;;7.64;75.09;99492.03;1844926;78;21208;-58
2023/03/08 18:08:55;;;;;;;20.10;14.18;;;;;;;7.72;75.09;99491.98;1827164;76;21741;-57
2023/03/08 18:12:14;;;;;;;23.27;15.65;;;;;;;7.78;75.05;99489.89;1831887;78;21377;-56
2023/03/08 18:15:48;;;;;;;23.40;15.60;;;;;;;7.84;75.02;99500.06;1828558;77;21350;-59
2023/03/08 18:19:05;;;;;;;23.85;16.50;;;;;;;7.88;74.97;99500.02;1845571;78;21322;-57
2023/03/08 18:22:25;;;;;;;20.37;15.05;;;;;;;7.94;74.94;99494.38;1845210;76;21315;-60
2023/03/08 18:25:45;;;;;;;19.73;14.28;;;;;;;7.97;74.89;99497.61;1816204;77;21732;-57
2023/03/08 18:29:11;;;;;;;17.90;13.00;;;;;;;8.03;74.89;99496.02;1843784;77;21188;-57
2023/03/08 18:32:40;;;;;;;17.75;12.68;;;;;;;8.07;74.87;99502.28;1838360;76;22359;-60
2023/03/08 18:35:53;;;;;;;18.75;13.53;;;;;;;8.11;74.84;99500.91;1823448;78;21362;-60
2023/03/08 18:39:21;;;;;;;19.23;12.97;;;;;;;8.15;74.84;99498.13;1844989;78;21194;-57